createdAt,value
2017-07-25T00:00:02.682Z,0
2017-07-25T00:01:02.696Z,0
2017-07-25T00:02:02.087Z,0
2017-07-25T00:03:02.289Z,0
2017-07-25T00:04:02.759Z,0
2017-07-25T00:05:02.787Z,0
2017-07-25T00:06:02.500Z,0
2017-07-25T00:07:02.829Z,0
2017-07-25T00:08:02.555Z,0
2017-07-25T00:09:02.975Z,0
2017-07-25T00:10:02.794Z,0
2017-07-25T00:11:02.687Z,0
2017-07-25T00:12:02.810Z,0
2017-07-25T00:13:02.489Z,0
2017-07-25T00:14:02.823Z,0
2017-07-25T00:15:02.824Z,0
2017-07-25T00:16:02.817Z,0
2017-07-25T00:17:02.224Z,0
2017-07-25T00:18:02.985Z,0
2017-07-25T00:19:03.327Z,0
2017-07-25T00:20:02.985Z,0
2017-07-25T00:21:03.191Z,0
2017-07-25T00:22:02.881Z,0
2017-07-25T00:23:02.989Z,0
2017-07-25T00:24:02.914Z,0
2017-07-25T00:25:03.241Z,0
2017-07-25T00:26:02.958Z,0
2017-07-25T00:27:02.810Z,0
2017-07-25T00:28:03.329Z,0
2017-07-25T00:29:03.133Z,0
2017-07-25T00:30:03.052Z,0
2017-07-25T00:31:03.086Z,0
2017-07-25T00:32:03.096Z,0
2017-07-25T00:33:03.429Z,0
2017-07-25T00:34:03.465Z,0
2017-07-25T00:35:03.471Z,0
2017-07-25T00:36:03.510Z,0
2017-07-25T00:37:03.523Z,0
2017-07-25T00:38:03.235Z,0
2017-07-25T00:39:03.560Z,0
2017-07-25T00:40:03.595Z,0
2017-07-25T00:41:03.614Z,0
2017-07-25T00:42:03.002Z,0
2017-07-25T00:43:03.650Z,0
2017-07-25T00:44:03.691Z,0
2017-07-25T00:45:03.401Z,0
2017-07-25T00:46:03.136Z,0
2017-07-25T00:47:02.801Z,0
2017-07-25T00:48:04.223Z,0
2017-07-25T00:49:03.797Z,0
2017-07-25T00:50:03.225Z,0
2017-07-25T00:51:03.844Z,0
2017-07-25T00:52:03.592Z,0
2017-07-25T00:53:03.898Z,0
2017-07-25T00:54:02.968Z,0
2017-07-25T00:55:03.623Z,0
2017-07-25T00:56:03.650Z,0
2017-07-25T00:57:04.091Z,0
2017-07-25T00:58:03.697Z,0
2017-07-25T00:59:04.088Z,0
2017-07-25T01:00:03.739Z,0
2017-07-25T01:01:04.085Z,0
2017-07-25T01:02:03.789Z,0
2017-07-25T01:03:03.800Z,0
2017-07-25T01:04:03.823Z,0
2017-07-25T01:05:04.292Z,0
2017-07-25T01:06:04.289Z,0
2017-07-25T01:07:04.440Z,0
2017-07-25T01:08:03.986Z,0
2017-07-25T01:09:04.445Z,0
2017-07-25T01:10:04.440Z,0
2017-07-25T01:11:04.447Z,0
2017-07-25T01:12:04.128Z,0
2017-07-25T01:13:04.126Z,0
2017-07-25T01:14:04.579Z,0
2017-07-25T01:15:04.149Z,0
2017-07-25T01:16:04.276Z,0
2017-07-25T01:17:04.156Z,0
2017-07-25T01:18:04.553Z,0
2017-07-25T01:19:04.278Z,0
2017-07-25T01:20:04.622Z,0
2017-07-25T01:21:04.128Z,0
2017-07-25T01:22:04.310Z,0
2017-07-25T01:23:04.351Z,0
2017-07-25T01:24:04.458Z,0
2017-07-25T01:25:04.454Z,0
2017-07-25T01:26:04.453Z,0
2017-07-25T01:27:04.360Z,0
2017-07-25T01:28:04.376Z,0
2017-07-25T01:29:04.718Z,0
2017-07-25T01:30:04.662Z,0
2017-07-25T01:31:04.754Z,0
2017-07-25T01:32:04.775Z,0
2017-07-25T01:33:04.944Z,0
2017-07-25T01:34:04.835Z,0
2017-07-25T01:35:04.844Z,0
2017-07-25T01:36:04.453Z,0
2017-07-25T01:37:04.464Z,0
2017-07-25T01:38:04.648Z,0
2017-07-25T01:39:04.710Z,0
2017-07-25T01:40:05.049Z,0
2017-07-25T01:41:05.032Z,0
2017-07-25T01:42:04.852Z,0
2017-07-25T01:43:05.193Z,0
2017-07-25T01:44:05.042Z,0
2017-07-25T01:45:04.778Z,0
2017-07-25T01:46:04.810Z,0
2017-07-25T01:47:04.501Z,0
2017-07-25T01:48:04.830Z,0
2017-07-25T01:49:04.847Z,0
2017-07-25T01:50:04.564Z,0
2017-07-25T01:51:04.641Z,0
2017-07-25T01:52:05.232Z,0
2017-07-25T01:53:04.939Z,0
2017-07-25T01:54:05.331Z,0
2017-07-25T01:55:04.679Z,0
2017-07-25T01:56:05.338Z,0
2017-07-25T01:57:05.755Z,0
2017-07-25T01:58:05.087Z,0
2017-07-25T01:59:05.365Z,0
2017-07-25T02:00:05.588Z,0
2017-07-25T02:01:05.709Z,0
2017-07-25T02:02:05.550Z,0
2017-07-25T02:03:06.016Z,0
2017-07-25T02:04:05.532Z,0
2017-07-25T02:05:05.520Z,0
2017-07-25T02:06:05.799Z,0
2017-07-25T02:07:04.935Z,0
2017-07-25T02:08:05.409Z,0
2017-07-25T02:09:05.301Z,0
2017-07-25T02:10:05.328Z,0
2017-07-25T02:11:04.710Z,0
2017-07-25T02:12:05.784Z,0
2017-07-25T02:13:05.420Z,0
2017-07-25T02:14:05.450Z,0
2017-07-25T02:15:05.753Z,0
2017-07-25T02:16:05.465Z,0
2017-07-25T02:17:05.485Z,0
2017-07-25T02:18:05.826Z,0
2017-07-25T02:19:04.893Z,0
2017-07-25T02:20:05.869Z,0
2017-07-25T02:21:05.883Z,0
2017-07-25T02:22:05.331Z,0
2017-07-25T02:23:04.986Z,0
2017-07-25T02:24:05.327Z,0
2017-07-25T02:25:05.981Z,0
2017-07-25T02:26:05.998Z,0
2017-07-25T02:27:06.018Z,0
2017-07-25T02:28:06.067Z,0
2017-07-25T02:29:05.428Z,0
2017-07-25T02:30:05.774Z,0
2017-07-25T02:31:05.798Z,0
2017-07-25T02:32:05.839Z,0
2017-07-25T02:33:05.536Z,0
2017-07-25T02:34:05.857Z,0
2017-07-25T02:35:05.571Z,0
2017-07-25T02:36:06.228Z,0
2017-07-25T02:37:06.359Z,0
2017-07-25T02:38:06.620Z,0
2017-07-25T02:39:06.295Z,0
2017-07-25T02:40:06.316Z,0
2017-07-25T02:41:06.341Z,0
2017-07-25T02:42:06.385Z,0
2017-07-25T02:43:06.396Z,0
2017-07-25T02:44:06.427Z,0
2017-07-25T02:45:06.434Z,0
2017-07-25T02:46:06.141Z,0
2017-07-25T02:47:05.838Z,0
2017-07-25T02:48:06.498Z,0
2017-07-25T02:49:06.197Z,0
2017-07-25T02:50:06.228Z,0
2017-07-25T02:51:06.345Z,0
2017-07-25T02:52:07.263Z,0
2017-07-25T02:53:06.613Z,0
2017-07-25T02:54:06.850Z,0
2017-07-25T02:55:06.466Z,0
2017-07-25T02:56:06.870Z,0
2017-07-25T02:57:06.930Z,0
2017-07-25T02:58:06.925Z,0
2017-07-25T02:59:06.607Z,0
2017-07-25T03:00:07.037Z,0
2017-07-25T03:01:06.924Z,0
2017-07-25T03:02:06.922Z,0
2017-07-25T03:03:06.773Z,0
2017-07-25T03:04:07.043Z,0
2017-07-25T03:05:07.043Z,0
2017-07-25T03:06:07.069Z,0
2017-07-25T03:07:06.767Z,0
2017-07-25T03:08:06.765Z,0
2017-07-25T03:09:07.076Z,0
2017-07-25T03:10:06.771Z,0
2017-07-25T03:11:07.074Z,0
2017-07-25T03:12:06.405Z,0
2017-07-25T03:13:06.770Z,0
2017-07-25T03:14:07.082Z,0
2017-07-25T03:15:07.105Z,0
2017-07-25T03:16:06.910Z,0
2017-07-25T03:17:07.154Z,0
2017-07-25T03:18:07.244Z,0
2017-07-25T03:19:07.191Z,0
2017-07-25T03:20:06.590Z,0
2017-07-25T03:21:06.940Z,0
2017-07-25T03:22:06.625Z,0
2017-07-25T03:23:07.274Z,0
2017-07-25T03:24:07.088Z,0
2017-07-25T03:25:07.075Z,0
2017-07-25T03:26:07.880Z,0
2017-07-25T03:27:07.086Z,0
2017-07-25T03:28:07.101Z,0
2017-07-25T03:29:07.403Z,0
2017-07-25T03:30:07.469Z,0
2017-07-25T03:31:07.475Z,0
2017-07-25T03:32:07.173Z,0
2017-07-25T03:33:07.185Z,0
2017-07-25T03:34:07.210Z,0
2017-07-25T03:35:07.247Z,0
2017-07-25T03:36:07.261Z,0
2017-07-25T03:37:07.277Z,0
2017-07-25T03:38:07.296Z,0
2017-07-25T03:39:07.333Z,0
2017-07-25T03:40:07.090Z,0
2017-07-25T03:41:07.089Z,0
2017-07-25T03:42:07.398Z,0
2017-07-25T03:43:07.731Z,0
2017-07-25T03:44:07.454Z,0
2017-07-25T03:45:07.460Z,0
2017-07-25T03:46:07.475Z,0
2017-07-25T03:47:07.496Z,0
2017-07-25T03:48:07.208Z,0
2017-07-25T03:49:07.896Z,0
2017-07-25T03:50:07.260Z,0
2017-07-25T03:51:07.589Z,0
2017-07-25T03:52:07.699Z,0
2017-07-25T03:53:07.316Z,0
2017-07-25T03:54:07.677Z,0
2017-07-25T03:55:07.773Z,0
2017-07-25T03:56:07.723Z,0
2017-07-25T03:57:08.031Z,0
2017-07-25T03:58:08.095Z,0
2017-07-25T03:59:07.770Z,0
2017-07-25T04:00:08.115Z,0
2017-07-25T04:01:07.817Z,0
2017-07-25T04:02:08.174Z,0
2017-07-25T04:03:07.540Z,0
2017-07-25T04:04:07.560Z,0
2017-07-25T04:05:07.296Z,0
2017-07-25T04:06:07.320Z,0
2017-07-25T04:07:07.627Z,0
2017-07-25T04:08:08.296Z,0
2017-07-25T04:09:07.685Z,0
2017-07-25T04:10:08.030Z,0
2017-07-25T04:11:08.036Z,0
2017-07-25T04:12:08.078Z,0
2017-07-25T04:13:08.077Z,0
2017-07-25T04:14:08.416Z,0
2017-07-25T04:15:08.453Z,0
2017-07-25T04:16:08.472Z,0
2017-07-25T04:17:08.487Z,0
2017-07-25T04:18:08.515Z,0
2017-07-25T04:19:08.213Z,0
2017-07-25T04:20:08.676Z,0
2017-07-25T04:21:08.077Z,0
2017-07-25T04:22:08.275Z,0
2017-07-25T04:23:08.004Z,0
2017-07-25T04:24:08.704Z,0
2017-07-25T04:25:08.356Z,0
2017-07-25T04:26:08.777Z,0
2017-07-25T04:27:08.394Z,0
2017-07-25T04:28:08.799Z,0
2017-07-25T04:29:08.472Z,0
2017-07-25T04:30:08.804Z,0
2017-07-25T04:31:08.475Z,0
2017-07-25T04:32:08.239Z,0
2017-07-25T04:33:08.935Z,0
2017-07-25T04:34:08.565Z,0
2017-07-25T04:35:08.973Z,0
2017-07-25T04:36:08.914Z,0
2017-07-25T04:37:08.731Z,0
2017-07-25T04:38:09.093Z,0
2017-07-25T04:39:08.755Z,0
2017-07-25T04:40:09.086Z,0
2017-07-25T04:41:09.261Z,0
2017-07-25T04:42:09.260Z,0
2017-07-25T04:43:09.015Z,0
2017-07-25T04:44:08.447Z,0
2017-07-25T04:45:09.264Z,0
2017-07-25T04:46:08.944Z,0
2017-07-25T04:47:08.518Z,0
2017-07-25T04:48:09.270Z,0
2017-07-25T04:49:08.894Z,0
2017-07-25T04:50:09.410Z,0
2017-07-25T04:51:09.411Z,0
2017-07-25T04:52:09.406Z,0
2017-07-25T04:53:09.414Z,0
2017-07-25T04:54:08.799Z,0
2017-07-25T04:55:09.095Z,0
2017-07-25T04:56:09.568Z,0
2017-07-25T04:57:09.470Z,0
2017-07-25T04:58:09.400Z,0
2017-07-25T04:59:09.418Z,0
2017-07-25T05:00:09.471Z,0
2017-07-25T05:01:09.468Z,0
2017-07-25T05:02:09.514Z,0
2017-07-25T05:03:09.529Z,0
2017-07-25T05:04:09.530Z,0
2017-07-25T05:05:09.257Z,0
2017-07-25T05:06:09.263Z,0
2017-07-25T05:07:09.605Z,0
2017-07-25T05:08:09.613Z,0
2017-07-25T05:09:09.337Z,0
2017-07-25T05:10:09.789Z,0
2017-07-25T05:11:09.369Z,0
2017-07-25T05:12:09.818Z,0
2017-07-25T05:13:09.834Z,0
2017-07-25T05:14:09.499Z,0
2017-07-25T05:15:09.819Z,0
2017-07-25T05:16:09.609Z,0
2017-07-25T05:17:09.631Z,0
2017-07-25T05:18:09.923Z,0
2017-07-25T05:19:10.097Z,0
2017-07-25T05:20:10.127Z,0
2017-07-25T05:21:10.114Z,0
2017-07-25T05:22:09.626Z,5
2017-07-25T05:23:09.951Z,5
2017-07-25T05:24:09.978Z,0
2017-07-25T05:25:09.829Z,0
2017-07-25T05:26:10.037Z,0
2017-07-25T05:27:10.163Z,0
2017-07-25T05:28:10.211Z,0
2017-07-25T05:29:10.214Z,0
2017-07-25T05:30:09.919Z,5
2017-07-25T05:31:10.345Z,0
2017-07-25T05:32:09.531Z,0
2017-07-25T05:33:09.994Z,0
2017-07-25T05:34:09.601Z,0
2017-07-25T05:35:10.356Z,0
2017-07-25T05:36:10.019Z,5
2017-07-25T05:37:10.049Z,5
2017-07-25T05:38:10.055Z,5
2017-07-25T05:39:10.394Z,5
2017-07-25T05:40:09.774Z,5
2017-07-25T05:41:10.045Z,5
2017-07-25T05:42:10.387Z,5
2017-07-25T05:43:10.084Z,5
2017-07-25T05:44:10.514Z,5
2017-07-25T05:45:10.449Z,5
2017-07-25T05:46:10.152Z,5
2017-07-25T05:47:10.173Z,5
2017-07-25T05:48:10.333Z,5
2017-07-25T05:49:10.520Z,5
2017-07-25T05:50:10.570Z,5
2017-07-25T05:51:10.256Z,5
2017-07-25T05:52:10.469Z,5
2017-07-25T05:53:10.651Z,5
2017-07-25T05:54:10.634Z,5
2017-07-25T05:55:10.348Z,5
2017-07-25T05:56:10.080Z,5
2017-07-25T05:57:10.389Z,5
2017-07-25T05:58:10.732Z,5
2017-07-25T05:59:10.752Z,5
2017-07-25T06:00:10.784Z,10
2017-07-25T06:01:10.794Z,10
2017-07-25T06:02:10.835Z,10
2017-07-25T06:03:10.834Z,5
2017-07-25T06:04:10.544Z,10
2017-07-25T06:05:10.252Z,10
2017-07-25T06:06:10.598Z,10
2017-07-25T06:07:10.943Z,10
2017-07-25T06:08:10.955Z,10
2017-07-25T06:09:10.777Z,10
2017-07-25T06:10:11.119Z,10
2017-07-25T06:11:11.021Z,10
2017-07-25T06:12:11.154Z,5
2017-07-25T06:13:10.746Z,5
2017-07-25T06:14:10.783Z,5
2017-07-25T06:15:11.194Z,10
2017-07-25T06:16:11.181Z,10
2017-07-25T06:17:10.586Z,5
2017-07-25T06:18:10.866Z,5
2017-07-25T06:19:10.997Z,5
2017-07-25T06:20:11.224Z,5
2017-07-25T06:21:10.605Z,5
2017-07-25T06:22:10.619Z,10
2017-07-25T06:23:10.962Z,10
2017-07-25T06:24:11.311Z,10
2017-07-25T06:25:11.020Z,10
2017-07-25T06:26:11.032Z,10
2017-07-25T06:27:11.367Z,10
2017-07-25T06:28:11.383Z,10
2017-07-25T06:29:11.095Z,10
2017-07-25T06:30:10.816Z,10
2017-07-25T06:31:11.142Z,10
2017-07-25T06:32:11.494Z,10
2017-07-25T06:33:11.192Z,10
2017-07-25T06:34:11.518Z,15
2017-07-25T06:35:11.569Z,15
2017-07-25T06:36:11.605Z,15
2017-07-25T06:37:11.279Z,15
2017-07-25T06:38:11.294Z,15
2017-07-25T06:39:11.324Z,15
2017-07-25T06:40:11.660Z,15
2017-07-25T06:41:11.685Z,15
2017-07-25T06:42:11.735Z,15
2017-07-25T06:43:11.407Z,15
2017-07-25T06:44:11.445Z,15
2017-07-25T06:45:11.781Z,15
2017-07-25T06:46:11.801Z,15
2017-07-25T06:47:11.825Z,15
2017-07-25T06:48:11.528Z,15
2017-07-25T06:49:11.545Z,15
2017-07-25T06:50:11.563Z,15
2017-07-25T06:51:11.905Z,15
2017-07-25T06:52:11.746Z,15
2017-07-25T06:53:11.945Z,15
2017-07-25T06:54:12.073Z,15
2017-07-25T06:55:12.001Z,20
2017-07-25T06:56:11.692Z,20
2017-07-25T06:57:11.729Z,25
2017-07-25T06:58:12.077Z,25
2017-07-25T06:59:12.112Z,25
2017-07-25T07:00:11.791Z,25
2017-07-25T07:01:12.141Z,25
2017-07-25T07:02:12.146Z,25
2017-07-25T07:03:12.164Z,20
2017-07-25T07:04:11.883Z,25
2017-07-25T07:05:11.675Z,25
2017-07-25T07:06:12.236Z,25
2017-07-25T07:07:12.257Z,20
2017-07-25T07:08:11.972Z,20
2017-07-25T07:09:11.984Z,20
2017-07-25T07:10:12.334Z,20
2017-07-25T07:11:12.347Z,20
2017-07-25T07:12:11.947Z,20
2017-07-25T07:13:12.083Z,20
2017-07-25T07:14:12.413Z,20
2017-07-25T07:15:12.437Z,25
2017-07-25T07:16:12.464Z,35
2017-07-25T07:17:12.487Z,40
2017-07-25T07:18:11.871Z,35
2017-07-25T07:19:12.212Z,30
2017-07-25T07:20:12.245Z,30
2017-07-25T07:21:12.275Z,30
2017-07-25T07:22:12.600Z,25
2017-07-25T07:23:12.614Z,25
2017-07-25T07:24:12.338Z,25
2017-07-25T07:25:12.359Z,30
2017-07-25T07:26:12.364Z,30
2017-07-25T07:27:12.706Z,25
2017-07-25T07:28:12.430Z,25
2017-07-25T07:29:12.443Z,20
2017-07-25T07:30:12.503Z,20
2017-07-25T07:31:12.189Z,20
2017-07-25T07:32:12.200Z,20
2017-07-25T07:33:11.908Z,25
2017-07-25T07:34:12.247Z,25
2017-07-25T07:35:12.588Z,30
2017-07-25T07:36:12.344Z,35
2017-07-25T07:37:13.001Z,30
2017-07-25T07:38:12.782Z,25
2017-07-25T07:39:12.680Z,20
2017-07-25T07:40:12.765Z,20
2017-07-25T07:41:13.095Z,20
2017-07-25T07:42:12.755Z,20
2017-07-25T07:43:12.928Z,20
2017-07-25T07:44:13.127Z,20
2017-07-25T07:45:12.505Z,25
2017-07-25T07:46:13.200Z,25
2017-07-25T07:47:13.063Z,25
2017-07-25T07:48:13.207Z,25
2017-07-25T07:49:12.934Z,25
2017-07-25T07:50:12.939Z,30
2017-07-25T07:51:13.270Z,25
2017-07-25T07:52:12.897Z,25
2017-07-25T07:53:12.750Z,25
2017-07-25T07:54:13.366Z,20
2017-07-25T07:55:27.514Z,20
2017-07-25T07:56:13.064Z,20
2017-07-25T07:57:12.751Z,20
2017-07-25T07:58:13.423Z,25
2017-07-25T07:59:13.759Z,25
2017-07-25T08:00:14.051Z,25
2017-07-25T08:01:12.864Z,25
2017-07-25T08:02:13.528Z,25
2017-07-25T08:03:12.919Z,25
2017-07-25T08:04:13.257Z,30
2017-07-25T08:05:13.600Z,35
2017-07-25T08:06:13.874Z,35
2017-07-25T08:07:13.483Z,35
2017-07-25T08:08:13.659Z,40
2017-07-25T08:09:13.156Z,35
2017-07-25T08:10:13.707Z,35
2017-07-25T08:11:13.093Z,35
2017-07-25T08:12:13.224Z,30
2017-07-25T08:13:13.487Z,35
2017-07-25T08:14:13.486Z,40
2017-07-25T08:15:13.192Z,35
2017-07-25T08:16:13.841Z,35
2017-07-25T08:17:13.644Z,35
2017-07-25T08:18:13.889Z,35
2017-07-25T08:19:13.919Z,45
2017-07-25T08:20:13.932Z,50
2017-07-25T08:21:14.048Z,45
2017-07-25T08:22:14.056Z,45
2017-07-25T08:23:14.152Z,45
2017-07-25T08:24:14.152Z,45
2017-07-25T08:25:13.768Z,45
2017-07-25T08:26:14.108Z,45
2017-07-25T08:27:13.473Z,40
2017-07-25T08:28:14.262Z,40
2017-07-25T08:29:13.728Z,40
2017-07-25T08:30:14.176Z,40
2017-07-25T08:31:14.184Z,40
2017-07-25T08:32:13.891Z,40
2017-07-25T08:33:13.922Z,35
2017-07-25T08:34:14.260Z,40
2017-07-25T08:35:13.965Z,45
2017-07-25T08:36:14.313Z,45
2017-07-25T08:37:13.691Z,55
2017-07-25T08:38:14.033Z,55
2017-07-25T08:39:14.380Z,55
2017-07-25T08:40:14.080Z,50
2017-07-25T08:41:13.782Z,45
2017-07-25T08:42:14.456Z,40
2017-07-25T08:43:14.479Z,45
2017-07-25T08:44:14.490Z,45
2017-07-25T08:45:14.519Z,50
2017-07-25T08:46:14.227Z,55
2017-07-25T08:47:13.695Z,50
2017-07-25T08:48:14.263Z,45
2017-07-25T08:49:14.296Z,40
2017-07-25T08:50:14.840Z,35
2017-07-25T08:51:14.438Z,35
2017-07-25T08:52:14.682Z,35
2017-07-25T08:53:14.735Z,35
2017-07-25T08:54:14.741Z,40
2017-07-25T08:55:14.759Z,50
2017-07-25T08:56:14.975Z,55
2017-07-25T08:57:14.168Z,55
2017-07-25T08:58:14.631Z,60
2017-07-25T08:59:14.988Z,55
2017-07-25T09:00:14.675Z,45
2017-07-25T09:01:14.692Z,40
2017-07-25T09:02:14.850Z,35
2017-07-25T09:03:15.023Z,40
2017-07-25T09:04:15.098Z,40
2017-07-25T09:05:15.063Z,45
2017-07-25T09:06:15.060Z,50
2017-07-25T09:07:15.071Z,60
2017-07-25T09:08:15.067Z,65
2017-07-25T09:09:14.771Z,75
2017-07-25T09:10:15.109Z,75
2017-07-25T09:11:14.818Z,65
2017-07-25T09:12:14.838Z,55
2017-07-25T09:13:15.320Z,50
2017-07-25T09:14:14.892Z,50
2017-07-25T09:15:15.228Z,50
2017-07-25T09:16:14.960Z,50
2017-07-25T09:17:14.978Z,55
2017-07-25T09:18:15.301Z,55
2017-07-25T09:19:15.014Z,55
2017-07-25T09:20:15.031Z,55
2017-07-25T09:21:14.750Z,60
2017-07-25T09:22:15.407Z,70
2017-07-25T09:23:14.803Z,75
2017-07-25T09:24:15.474Z,70
2017-07-25T09:25:15.176Z,75
2017-07-25T09:26:14.882Z,70
2017-07-25T09:27:14.953Z,65
2017-07-25T09:28:15.037Z,65
2017-07-25T09:29:15.589Z,70
2017-07-25T09:30:15.292Z,75
2017-07-25T09:31:15.625Z,80
2017-07-25T09:32:15.334Z,80
2017-07-25T09:33:15.673Z,80
2017-07-25T09:34:15.151Z,75
2017-07-25T09:35:15.094Z,75
2017-07-25T09:36:15.743Z,65
2017-07-25T09:37:15.774Z,65
2017-07-25T09:38:15.805Z,70
2017-07-25T09:39:15.835Z,65
2017-07-25T09:40:14.888Z,65
2017-07-25T09:41:15.869Z,70
2017-07-25T09:42:16.014Z,70
2017-07-25T09:43:15.720Z,70
2017-07-25T09:44:16.014Z,70
2017-07-25T09:45:16.058Z,70
2017-07-25T09:46:16.085Z,65
2017-07-25T09:47:16.118Z,65
2017-07-25T09:48:16.098Z,70
2017-07-25T09:49:16.091Z,65
2017-07-25T09:50:16.093Z,60
2017-07-25T09:51:16.181Z,55
2017-07-25T09:52:15.513Z,55
2017-07-25T09:53:15.856Z,50
2017-07-25T09:54:15.878Z,50
2017-07-25T09:55:15.910Z,55
2017-07-25T09:56:16.262Z,55
2017-07-25T09:57:16.274Z,60
2017-07-25T09:58:15.989Z,55
2017-07-25T09:59:16.005Z,50
2017-07-25T10:00:15.709Z,40
2017-07-25T10:01:16.074Z,30
2017-07-25T10:02:15.764Z,25
2017-07-25T10:03:16.718Z,20
2017-07-25T10:04:16.520Z,20
2017-07-25T10:05:16.475Z,20
2017-07-25T10:06:16.504Z,20
2017-07-25T10:07:15.893Z,20
2017-07-25T10:08:16.558Z,15
2017-07-25T10:09:16.581Z,15
2017-07-25T10:10:16.604Z,20
2017-07-25T10:11:16.638Z,25
2017-07-25T10:12:16.768Z,25
2017-07-25T10:13:16.790Z,35
2017-07-25T10:14:16.488Z,40
2017-07-25T10:15:16.800Z,45
2017-07-25T10:16:16.497Z,50
2017-07-25T10:17:16.798Z,55
2017-07-25T10:18:16.294Z,60
2017-07-25T10:19:16.523Z,65
2017-07-25T10:20:16.320Z,65
2017-07-25T10:21:16.957Z,65
2017-07-25T10:22:16.640Z,65
2017-07-25T10:23:16.410Z,65
2017-07-25T10:24:16.734Z,60
2017-07-25T10:25:16.761Z,60
2017-07-25T10:26:16.468Z,60
2017-07-25T10:27:16.934Z,60
2017-07-25T10:28:17.164Z,55
2017-07-25T10:29:17.343Z,55
2017-07-25T10:30:16.946Z,55
2017-07-25T10:31:16.964Z,55
2017-07-25T10:32:16.857Z,55
2017-07-25T10:33:16.576Z,50
2017-07-25T10:34:16.584Z,50
2017-07-25T10:35:17.258Z,55
2017-07-25T10:36:16.960Z,55
2017-07-25T10:37:17.046Z,55
2017-07-25T10:38:17.339Z,55
2017-07-25T10:39:17.041Z,55
2017-07-25T10:40:17.065Z,50
2017-07-25T10:41:17.095Z,50
2017-07-25T10:42:17.445Z,50
2017-07-25T10:43:17.455Z,55
2017-07-25T10:44:17.541Z,60
2017-07-25T10:45:17.374Z,65
2017-07-25T10:46:17.220Z,65
2017-07-25T10:47:17.564Z,70
2017-07-25T10:48:17.271Z,70
2017-07-25T10:49:17.298Z,70
2017-07-25T10:50:16.712Z,75
2017-07-25T10:51:17.357Z,75
2017-07-25T10:52:17.694Z,80
2017-07-25T10:53:17.426Z,85
2017-07-25T10:54:17.475Z,85
2017-07-25T10:55:17.778Z,85
2017-07-25T10:56:16.849Z,85
2017-07-25T10:57:17.832Z,85
2017-07-25T10:58:17.224Z,75
2017-07-25T10:59:17.250Z,70
2017-07-25T11:00:17.594Z,70
2017-07-25T11:01:17.949Z,70
2017-07-25T11:02:17.639Z,65
2017-07-25T11:03:17.988Z,60
2017-07-25T11:04:18.022Z,55
2017-07-25T11:05:17.415Z,55
2017-07-25T11:06:17.771Z,55
2017-07-25T11:07:17.783Z,45
2017-07-25T11:08:17.490Z,25
2017-07-25T11:09:17.827Z,15
2017-07-25T11:10:18.169Z,10
2017-07-25T11:11:17.898Z,5
2017-07-25T11:12:18.234Z,5
2017-07-25T11:13:18.001Z,5
2017-07-25T11:14:18.087Z,5
2017-07-25T11:15:18.085Z,5
2017-07-25T11:16:17.799Z,5
2017-07-25T11:17:18.219Z,5
2017-07-25T11:18:17.958Z,5
2017-07-25T11:19:17.824Z,5
2017-07-25T11:20:18.168Z,5
2017-07-25T11:21:18.286Z,5
2017-07-25T11:22:17.984Z,5
2017-07-25T11:23:18.368Z,5
2017-07-25T11:24:18.420Z,5
2017-07-25T11:25:18.104Z,5
2017-07-25T11:26:18.427Z,5
2017-07-25T11:27:18.438Z,5
2017-07-25T11:28:18.352Z,0
2017-07-25T11:29:18.683Z,0
2017-07-25T11:30:18.745Z,5
2017-07-25T11:31:18.541Z,5
2017-07-25T11:32:18.281Z,5
2017-07-25T11:33:18.477Z,5
2017-07-25T11:34:18.646Z,5
2017-07-25T11:35:18.842Z,5
2017-07-25T11:36:18.870Z,5
2017-07-25T11:37:18.055Z,5
2017-07-25T11:38:18.930Z,5
2017-07-25T11:39:18.648Z,5
2017-07-25T11:40:18.672Z,5
2017-07-25T11:41:18.696Z,5
2017-07-25T11:42:18.712Z,5
2017-07-25T11:43:18.741Z,5
2017-07-25T11:44:19.098Z,5
2017-07-25T11:45:19.114Z,5
2017-07-25T11:46:18.825Z,5
2017-07-25T11:47:18.860Z,5
2017-07-25T11:48:19.197Z,5
2017-07-25T11:49:19.221Z,5
2017-07-25T11:50:18.928Z,5
2017-07-25T11:51:18.965Z,5
2017-07-25T11:52:19.299Z,5
2017-07-25T11:53:19.335Z,5
2017-07-25T11:54:19.040Z,5
2017-07-25T11:55:18.750Z,5
2017-07-25T11:56:19.087Z,5
2017-07-25T11:57:19.427Z,5
2017-07-25T11:58:19.461Z,5
2017-07-25T11:59:19.483Z,5
2017-07-25T12:00:18.873Z,5
2017-07-25T12:01:19.324Z,5
2017-07-25T12:02:19.359Z,5
2017-07-25T12:03:19.157Z,10
2017-07-25T12:04:18.666Z,10
2017-07-25T12:05:19.374Z,10
2017-07-25T12:06:19.764Z,10
2017-07-25T12:07:19.378Z,10
2017-07-25T12:08:19.407Z,10
2017-07-25T12:09:19.427Z,10
2017-07-25T12:10:19.855Z,10
2017-07-25T12:11:19.855Z,10
2017-07-25T12:12:19.600Z,10
2017-07-25T12:13:19.994Z,10
2017-07-25T12:14:20.002Z,15
2017-07-25T12:15:19.991Z,15
2017-07-25T12:16:20.164Z,15
2017-07-25T12:17:20.158Z,20
2017-07-25T12:18:20.156Z,20
2017-07-25T12:19:19.376Z,25
2017-07-25T12:20:20.149Z,30
2017-07-25T12:21:19.846Z,35
2017-07-25T12:22:19.547Z,40
2017-07-25T12:23:19.861Z,45
2017-07-25T12:24:19.893Z,45
2017-07-25T12:25:20.297Z,40
2017-07-25T12:26:19.984Z,40
2017-07-25T12:27:19.666Z,40
2017-07-25T12:28:20.169Z,35
2017-07-25T12:29:20.343Z,35
2017-07-25T12:30:20.159Z,35
2017-07-25T12:31:20.371Z,35
2017-07-25T12:32:19.936Z,40
2017-07-25T12:33:20.061Z,45
2017-07-25T12:34:19.883Z,45
2017-07-25T12:35:20.458Z,45
2017-07-25T12:36:20.301Z,45
2017-07-25T12:37:19.962Z,45
2017-07-25T12:38:20.498Z,35
2017-07-25T12:39:20.535Z,35
2017-07-25T12:40:20.550Z,35
2017-07-25T12:41:20.606Z,25
2017-07-25T12:42:20.325Z,35
2017-07-25T12:43:20.649Z,35
2017-07-25T12:44:20.528Z,40
2017-07-25T12:45:20.689Z,45
2017-07-25T12:46:20.411Z,50
2017-07-25T12:47:20.414Z,50
2017-07-25T12:48:20.739Z,55
2017-07-25T12:49:20.781Z,60
2017-07-25T12:50:20.592Z,65
2017-07-25T12:51:20.837Z,70
2017-07-25T12:52:20.230Z,75
2017-07-25T12:53:20.570Z,75
2017-07-25T12:54:20.927Z,70
2017-07-25T12:55:20.627Z,60
2017-07-25T12:56:20.332Z,50
2017-07-25T12:57:20.995Z,40
2017-07-25T12:58:21.016Z,45
2017-07-25T12:59:20.736Z,65
2017-07-25T13:00:20.754Z,65
2017-07-25T13:01:20.774Z,50
2017-07-25T13:02:21.232Z,35
2017-07-25T13:03:20.923Z,30
2017-07-25T13:04:20.922Z,35
2017-07-25T13:05:20.970Z,50
2017-07-25T13:06:21.095Z,50
2017-07-25T13:07:21.305Z,35
2017-07-25T13:08:21.307Z,30
2017-07-25T13:09:21.317Z,40
2017-07-25T13:10:21.328Z,55
2017-07-25T13:11:20.920Z,60
2017-07-25T13:12:20.426Z,70
2017-07-25T13:13:21.413Z,80
2017-07-25T13:14:20.934Z,85
2017-07-25T13:15:21.478Z,85
2017-07-25T13:16:21.441Z,75
2017-07-25T13:17:21.298Z,60
2017-07-25T13:18:21.469Z,55
2017-07-25T13:19:20.611Z,55
2017-07-25T13:20:21.480Z,55
2017-07-25T13:21:20.989Z,55
2017-07-25T13:22:21.128Z,55
2017-07-25T13:23:21.856Z,60
2017-07-25T13:24:21.464Z,75
2017-07-25T13:25:21.803Z,80
2017-07-25T13:26:21.878Z,90
2017-07-25T13:27:21.624Z,90
2017-07-25T13:28:21.516Z,95
2017-07-25T13:29:21.517Z,90
2017-07-25T13:30:21.306Z,90
2017-07-25T13:31:21.758Z,80
2017-07-25T13:32:21.759Z,85
2017-07-25T13:33:21.507Z,90
2017-07-25T13:34:21.441Z,115
2017-07-25T13:35:21.768Z,105
2017-07-25T13:36:22.011Z,80
2017-07-25T13:37:21.492Z,70
2017-07-25T13:38:22.063Z,80
2017-07-25T13:39:21.512Z,70
2017-07-25T13:40:21.811Z,50
2017-07-25T13:41:21.838Z,70
2017-07-25T13:42:22.169Z,80
2017-07-25T13:43:21.570Z,80
2017-07-25T13:44:21.766Z,90
2017-07-25T13:45:22.306Z,100
2017-07-25T13:46:21.457Z,105
2017-07-25T13:47:21.989Z,110
2017-07-25T13:48:22.110Z,105
2017-07-25T13:49:22.245Z,105
2017-07-25T13:50:22.120Z,105
2017-07-25T13:51:22.472Z,95
2017-07-25T13:52:21.807Z,85
2017-07-25T13:53:22.152Z,70
2017-07-25T13:54:22.494Z,65
2017-07-25T13:55:22.521Z,60
2017-07-25T13:56:22.665Z,60
2017-07-25T13:57:22.366Z,60
2017-07-25T13:58:22.414Z,60
2017-07-25T13:59:22.487Z,60
2017-07-25T14:00:22.798Z,55
2017-07-25T14:01:22.463Z,45
2017-07-25T14:02:22.491Z,30
2017-07-25T14:03:22.905Z,20
2017-07-25T14:04:22.780Z,15
2017-07-25T14:05:22.796Z,10
2017-07-25T14:06:22.829Z,10
2017-07-25T14:07:21.899Z,10
2017-07-25T14:08:22.878Z,15
2017-07-25T14:09:22.903Z,20
2017-07-25T14:10:22.929Z,25
2017-07-25T14:11:22.963Z,25
2017-07-25T14:12:22.681Z,30
2017-07-25T14:13:23.112Z,30
2017-07-25T14:14:22.726Z,30
2017-07-25T14:15:23.137Z,20
2017-07-25T14:16:22.780Z,15
2017-07-25T14:17:23.136Z,20
2017-07-25T14:18:23.265Z,20
2017-07-25T14:19:23.275Z,20
2017-07-25T14:20:23.301Z,20
2017-07-25T14:21:22.926Z,15
2017-07-25T14:22:23.391Z,10
2017-07-25T14:23:22.975Z,20
2017-07-25T14:24:23.407Z,20
2017-07-25T14:25:23.113Z,20
2017-07-25T14:26:23.596Z,20
2017-07-25T14:27:23.143Z,25
2017-07-25T14:28:23.433Z,25
2017-07-25T14:29:23.181Z,30
2017-07-25T14:30:23.162Z,30